Time,TemperatureF,DewpointF,PressureIn,WindDirection,WindDirectionDegrees,WindSpeedMPH,WindSpeedGustMPH,Humidity,HourlyPrecipIn,Conditions,Clouds,dailyrainin,SoftwareType,DateUTC
2013-02-21 00:00:00,28.5,20.6,30.06,ESE,102,2.0,11.0,72,0.00,,CLR,0.00,VWS V14.01,2013-02-21 06:00:00,
2013-02-21 00:01:00,29.8,15.6,30.10,ENE,70,7.0,9.0,55,0.00,,OVC033,0.00,VWS V14.01,2013-02-21 06:01:00,
2013-02-21 00:07:00,29.9,16.1,30.09,ESE,119,4.0,9.0,56,0.00,,OVC033,0.00,VWS V14.01,2013-02-21 06:07:00,
2013-02-21 00:12:00,29.8,16.0,30.09,ESE,109,5.0,9.0,56,0.00,,OVC033,0.00,VWS V14.01,2013-02-21 06:12:00,
2013-02-21 00:17:00,29.8,16.8,30.09,ESE,107,4.0,9.0,58,0.00,,OVC033,0.00,VWS V14.01,2013-02-21 06:17:00,
2013-02-21 00:22:00,29.7,17.5,30.09,East,96,1.0,9.0,60,0.00,,OVC033,0.00,VWS V14.01,2013-02-21 06:22:00,
2013-02-21 00:27:00,29.4,18.7,30.08,ESE,117,5.0,9.0,64,0.00,,OVC033,0.00,VWS V14.01,2013-02-21 06:27:00,
2013-02-21 00:30:00,28.3,21.1,30.08,ESE,111,3.0,13.0,74,0.00,,CLR,0.00,VWS V14.01,2013-02-21 06:30:00,
2013-02-21 00:32:00,29.2,19.3,30.09,East,81,10.0,10.0,66,0.00,,OVC033,0.00,VWS V14.01,2013-02-21 06:32:00,
2013-02-21 00:37:00,29.0,20.1,30.08,ESE,109,1.0,10.0,69,0.00,,OVC033,0.00,VWS V14.01,2013-02-21 06:37:00,
2013-02-21 00:42:00,28.8,20.3,30.08,ENE,68,4.0,10.0,70,0.00,,OVC033,0.00,VWS V14.01,2013-02-21 06:42:00,
2013-02-21 00:47:00,28.7,20.5,30.08,SE,138,2.0,10.0,71,0.00,,OVC033,0.00,VWS V14.01,2013-02-21 06:47:00,
2013-02-21 00:52:00,28.6,20.4,30.08,East,94,3.0,10.0,71,0.00,,OVC033,0.00,VWS V14.01,2013-02-21 06:52:00,
2013-02-21 00:57:00,28.5,20.6,30.07,ESE,123,3.0,11.0,72,0.00,,OVC033,0.00,VWS V14.01,2013-02-21 06:57:00,
2013-02-21 01:00:00,28.3,21.7,30.07,East,84,3.0,10.0,76,0.00,,CLR,0.00,VWS V14.01,2013-02-21 07:00:00,
2013-02-21 01:03:00,28.4,20.5,30.06,ESE,105,5.0,10.0,72,0.00,,OVC055,0.00,VWS V14.01,2013-02-21 07:03:00,
2013-02-21 01:08:00,28.3,20.1,30.08,ESE,110,3.0,13.0,71,0.00,,OVC055,0.00,VWS V14.01,2013-02-21 07:08:00,
2013-02-21 01:13:00,28.2,20.7,30.08,SE,131,5.0,13.0,73,0.00,,OVC055,0.00,VWS V14.01,2013-02-21 07:13:00,
2013-02-21 01:18:00,28.2,20.4,30.09,SE,124,5.0,13.0,72,0.00,,OVC055,0.00,VWS V14.01,2013-02-21 07:18:00,
2013-02-21 01:23:00,28.2,20.7,30.08,ENE,57,5.0,13.0,73,0.00,,OVC055,0.00,VWS V14.01,2013-02-21 07:23:00,
2013-02-21 01:28:00,28.3,20.8,30.08,East,94,2.0,13.0,73,0.00,,OVC055,0.00,VWS V14.01,2013-02-21 07:28:00,
2013-02-21 01:30:00,27.8,22.7,30.05,SE,135,2.0,11.0,81,0.00,,CLR,0.00,VWS V14.01,2013-02-21 07:30:00,
2013-02-21 01:33:00,28.3,21.1,30.07,SE,130,4.0,10.0,74,0.00,,OVC055,0.00,VWS V14.01,2013-02-21 07:33:00,
2013-02-21 01:38:00,28.3,21.1,30.07,East,84,2.0,10.0,74,0.00,,OVC055,0.00,VWS V14.01,2013-02-21 07:38:00,
2013-02-21 01:43:00,28.3,21.4,30.08,ESE,117,1.0,10.0,75,0.00,,OVC075,0.00,VWS V14.01,2013-02-21 07:43:00,
2013-02-21 01:48:00,28.3,21.4,30.08,ENE,74,0.0,10.0,75,0.00,,OVC075,0.00,VWS V14.01,2013-02-21 07:48:00,
2013-02-21 01:53:00,28.3,21.4,30.08,East,88,1.0,10.0,75,0.00,,OVC075,0.00,VWS V14.01,2013-02-21 07:53:00,
2013-02-21 01:58:00,28.3,21.7,30.07,ENE,72,9.0,10.0,76,0.00,,OVC075,0.00,VWS V14.01,2013-02-21 07:58:00,
2013-02-21 02:00:00,27.5,22.7,30.03,ESE,123,5.0,11.0,82,0.00,,CLR,0.00,VWS V14.01,2013-02-21 08:00:00,
2013-02-21 02:03:00,28.2,21.9,30.07,SE,136,3.0,6.0,77,0.00,,OVC075,0.00,VWS V14.01,2013-02-21 08:03:00,
2013-02-21 02:09:00,28.1,21.5,30.07,ESE,103,9.0,10.0,76,0.00,,OVC075,0.00,VWS V14.01,2013-02-21 08:09:00,
2013-02-21 02:14:00,28.1,21.8,30.07,ESE,115,1.0,10.0,77,0.00,,OVC075,0.00,VWS V14.01,2013-02-21 08:14:00,
2013-02-21 02:19:00,28.0,22.3,30.06,East,89,1.0,10.0,79,0.00,,OVC075,0.00,VWS V14.01,2013-02-21 08:19:00,
2013-02-21 02:24:00,28.0,22.3,30.05,East,97,5.0,11.0,79,0.00,,OVC075,0.00,VWS V14.01,2013-02-21 08:24:00,
2013-02-21 02:29:00,27.8,22.7,30.05,ESE,116,4.0,11.0,81,0.00,,OVC075,0.00,VWS V14.01,2013-02-21 08:29:00,
2013-02-21 02:30:00,27.6,23.1,30.02,SE,124,6.0,12.0,83,0.00,,CLR,0.00,VWS V14.01,2013-02-21 08:30:00,
2013-02-21 02:34:00,27.8,23.0,30.05,ESE,113,5.0,10.0,82,0.00,,OVC075,0.00,VWS V14.01,2013-02-21 08:34:00,
2013-02-21 02:39:00,27.7,22.9,30.05,East,94,2.0,11.0,82,0.00,,OVC075,0.00,VWS V14.01,2013-02-21 08:39:00,
2013-02-21 02:44:00,27.6,22.5,30.04,ENE,76,8.0,11.0,81,0.00,,OVC075,0.00,VWS V14.01,2013-02-21 08:44:00,
2013-02-21 02:49:00,27.6,22.8,30.03,East,84,2.0,11.0,82,0.00,,OVC075,0.00,VWS V14.01,2013-02-21 08:49:00,
2013-02-21 02:54:00,27.5,22.7,30.03,ESE,116,4.0,11.0,82,0.00,,OVC090,0.00,VWS V14.01,2013-02-21 08:54:00,
2013-02-21 02:59:00,27.5,22.7,30.03,ESE,120,3.0,11.0,82,0.00,,OVC090,0.00,VWS V14.01,2013-02-21 08:59:00,
2013-02-21 03:00:00,27.6,23.4,30.00,ESE,122,5.0,16.0,84,0.00,,CLR,0.00,VWS V14.01,2013-02-21 09:00:00,
2013-02-21 03:04:00,27.5,22.7,30.03,ESE,123,3.0,7.0,82,0.00,,OVC090,0.00,VWS V14.01,2013-02-21 09:04:00,
2013-02-21 03:10:00,27.5,22.7,30.03,ESE,119,4.0,11.0,82,0.00,,OVC090,0.00,VWS V14.01,2013-02-21 09:10:00,
2013-02-21 03:15:00,27.5,22.5,30.02,East,80,2.0,12.0,81,0.00,,OVC090,0.00,VWS V14.01,2013-02-21 09:15:00,
2013-02-21 03:20:00,27.6,22.8,30.02,East,90,2.0,12.0,82,0.00,,OVC090,0.00,VWS V14.01,2013-02-21 09:20:00,
2013-02-21 03:25:00,27.6,23.1,30.02,ESE,119,3.0,12.0,83,0.00,,OVC090,0.00,VWS V14.01,2013-02-21 09:25:00,
2013-02-21 03:30:00,27.6,23.1,30.02,SE,129,5.0,6.0,83,0.00,,OVC090,0.00,VWS V14.01,2013-02-21 09:30:00,
2013-02-21 03:35:00,27.6,23.1,30.01,ESE,111,2.0,12.0,83,0.00,,OVC090,0.00,VWS V14.01,2013-02-21 09:35:00,
2013-02-21 03:40:00,27.6,23.1,30.01,SE,130,3.0,12.0,83,0.00,,OVC090,0.00,VWS V14.01,2013-02-21 09:40:00,
2013-02-21 03:45:00,27.7,23.8,30.00,ENE,74,3.0,12.0,85,0.00,,OVC070,0.00,VWS V14.01,2013-02-21 09:45:00,
2013-02-21 03:50:00,27.8,23.9,30.00,ESE,103,2.0,12.0,85,0.00,,OVC070,0.00,VWS V14.01,2013-02-21 09:50:00,
2013-02-21 03:55:00,27.8,23.9,30.01,East,87,5.0,16.0,85,0.00,,OVC070,0.00,VWS V14.01,2013-02-21 09:55:00,
2013-02-21 04:00:00,27.7,23.5,30.00,ESE,103,7.0,10.0,84,0.00,,OVC070,0.00,VWS V14.01,2013-02-21 10:00:00,
2013-02-21 04:06:00,27.6,23.4,30.00,NE,42,3.0,14.0,84,0.00,,OVC070,0.00,VWS V14.01,2013-02-21 10:06:00,
2013-02-21 04:11:00,27.6,23.7,30.00,ESE,112,7.0,14.0,85,0.00,,OVC070,0.00,VWS V14.01,2013-02-21 10:11:00,
2013-02-21 04:16:00,27.5,23.6,29.99,East,99,3.0,14.0,85,0.00,,OVC070,0.00,VWS V14.01,2013-02-21 10:16:00,
2013-02-21 04:21:00,27.4,23.2,29.99,East,88,9.0,14.0,84,0.00,,OVC070,0.00,VWS V14.01,2013-02-21 10:21:00,
2013-02-21 04:26:00,27.4,23.5,29.99,East,93,3.0,14.0,85,0.00,,OVC070,0.00,VWS V14.01,2013-02-21 10:26:00,
2013-02-21 04:30:00,27.1,23.2,29.97,ESE,118,5.0,16.0,85,0.00,,CLR,0.00,VWS V14.01,2013-02-21 10:30:00,
2013-02-21 04:31:00,27.4,23.2,29.98,East,98,6.0,8.0,84,0.00,,OVC070,0.00,VWS V14.01,2013-02-21 10:31:00,
2013-02-21 04:36:00,27.4,23.2,29.98,ESE,120,0.0,9.0,84,0.00,,OVC070,0.00,VWS V14.01,2013-02-21 10:36:00,
2013-02-21 04:41:00,27.4,23.5,29.98,ESE,111,4.0,9.0,85,0.00,,OVC070,0.00,VWS V14.01,2013-02-21 10:41:00,
2013-02-21 04:46:00,27.4,23.2,29.97,ESE,115,8.0,12.0,84,0.00,,OVC070,0.00,VWS V14.01,2013-02-21 10:46:00,
2013-02-21 04:51:00,27.4,23.2,29.96,SE,128,4.0,12.0,84,0.00,,OVC070,0.00,VWS V14.01,2013-02-21 10:51:00,
2013-02-21 04:57:00,27.4,22.9,29.96,East,94,7.0,16.0,83,0.00,,OVC070,0.00,VWS V14.01,2013-02-21 10:57:00,
2013-02-21 05:00:00,27.0,23.4,29.96,ENE,71,7.0,14.0,86,0.00,,CLR,0.00,VWS V14.01,2013-02-21 11:00:00,
2013-02-21 05:02:00,27.3,22.8,29.96,East,84,7.0,11.0,83,0.00,,OVC070,0.00,VWS V14.01,2013-02-21 11:02:00,
2013-02-21 05:07:00,27.3,22.8,29.96,ESE,110,13.0,16.0,83,0.00,,OVC070,0.00,VWS V14.01,2013-02-21 11:07:00,
2013-02-21 05:12:00,27.2,23.0,29.95,East,82,11.0,16.0,84,0.00,,OVC070,0.00,VWS V14.01,2013-02-21 11:12:00,
2013-02-21 05:17:00,27.2,23.0,29.95,SE,139,5.0,16.0,84,0.00,,OVC070,0.00,VWS V14.01,2013-02-21 11:17:00,
2013-02-21 05:22:00,27.2,23.3,29.95,SE,132,2.0,16.0,85,0.00,,OVC070,0.00,VWS V14.01,2013-02-21 11:22:00,
2013-02-21 05:27:00,27.1,23.2,29.97,ESE,121,10.0,16.0,85,0.00,,OVC070,0.00,VWS V14.01,2013-02-21 11:27:00,
2013-02-21 05:30:00,27.2,23.9,29.90,SE,128,13.0,14.0,87,0.00,,CLR,0.00,VWS V14.01,2013-02-21 11:30:00,
2013-02-21 05:32:00,27.1,23.2,29.96,ESE,120,7.0,10.0,85,0.00,,OVC070,0.00,VWS V14.01,2013-02-21 11:32:00,
2013-02-21 05:37:00,27.0,23.1,29.96,ESE,120,5.0,12.0,85,0.00,,OVC070,0.00,VWS V14.01,2013-02-21 11:37:00,
2013-02-21 05:42:00,27.0,23.1,29.95,SE,134,1.0,13.0,85,0.00,,OVC070,0.00,VWS V14.01,2013-02-21 11:42:00,
2013-02-21 05:48:00,27.0,23.4,29.95,ESE,109,9.0,13.0,86,0.00,,OVC070,0.00,VWS V14.01,2013-02-21 11:48:00,
2013-02-21 05:53:00,27.0,23.1,29.95,ESE,122,8.0,14.0,85,0.00,,OVC070,0.00,VWS V14.01,2013-02-21 11:53:00,
2013-02-21 05:58:00,27.0,23.1,29.96,East,100,1.0,14.0,85,0.00,,OVC070,0.00,VWS V14.01,2013-02-21 11:58:00,
2013-02-21 06:00:00,27.0,23.6,29.95,SE,138,2.0,17.0,87,0.00,,CLR,0.00,VWS V14.01,2013-02-21 12:00:00,
2013-02-21 06:03:00,27.1,23.5,29.97,ESE,116,3.0,13.0,86,0.00,,OVC048,0.00,VWS V14.01,2013-02-21 12:03:00,
2013-02-21 06:08:00,27.1,23.5,29.95,ESE,106,12.0,13.0,86,0.00,,OVC048,0.00,VWS V14.01,2013-02-21 12:08:00,
2013-02-21 06:13:00,27.3,24.2,29.93,SE,133,10.0,13.0,88,0.00,,OVC048,0.00,VWS V14.01,2013-02-21 12:13:00,
2013-02-21 06:18:00,27.4,24.3,29.93,SE,139,3.0,14.0,88,0.00,,OVC048,0.00,VWS V14.01,2013-02-21 12:18:00,
2013-02-21 06:23:00,27.4,24.3,29.91,East,101,7.0,14.0,88,0.00,,OVC048,0.00,VWS V14.01,2013-02-21 12:23:00,
2013-02-21 06:28:00,27.3,24.0,29.91,East,91,3.0,14.0,87,0.00,,OVC048,0.00,VWS V14.01,2013-02-21 12:28:00,
2013-02-21 06:30:00,27.2,24.1,29.90,East,99,5.0,13.0,88,0.00,,CLR,0.00,VWS V14.01,2013-02-21 12:30:00,
2013-02-21 06:33:00,27.2,23.6,29.92,East,101,8.0,14.0,86,0.00,,OVC048,0.00,VWS V14.01,2013-02-21 12:33:00,
2013-02-21 06:38:00,27.1,23.5,29.90,ENE,74,10.0,16.0,86,0.00,,OVC048,0.00,VWS V14.01,2013-02-21 12:38:00,
2013-02-21 06:44:00,27.0,23.4,29.90,SE,128,6.0,17.0,86,0.00,,OVC065,0.00,VWS V14.01,2013-02-21 12:44:00,
2013-02-21 06:49:00,27.0,23.6,29.90,East,88,9.0,17.0,87,0.00,,OVC065,0.00,VWS V14.01,2013-02-21 12:49:00,
2013-02-21 06:54:00,26.9,23.6,29.91,ESE,120,15.0,17.0,87,0.00,,OVC065,0.00,VWS V14.01,2013-02-21 12:54:00,
2013-02-21 06:59:00,27.0,23.9,29.95,SSE,148,2.0,17.0,88,0.00,,OVC065,0.00,VWS V14.01,2013-02-21 12:59:00,
2013-02-21 07:00:00,27.2,24.7,29.89,ENE,71,7.0,12.0,90,0.00,,CLR,0.00,VWS V14.01,2013-02-21 13:00:00,
2013-02-21 07:04:00,27.1,23.8,29.92,SE,132,7.0,8.0,87,0.00,,OVC065,0.00,VWS V14.01,2013-02-21 13:04:00,
2013-02-21 07:09:00,27.1,23.8,29.94,East,98,1.0,11.0,87,0.00,,OVC065,0.00,VWS V14.01,2013-02-21 13:09:00,
2013-02-21 07:14:00,27.2,23.9,29.98,ENE,63,5.0,11.0,87,0.00,,OVC065,0.00,VWS V14.01,2013-02-21 13:14:00,
2013-02-21 07:19:00,27.2,24.1,29.95,East,96,6.0,11.0,88,0.00,,OVC065,0.00,VWS V14.01,2013-02-21 13:19:00,
2013-02-21 07:24:00,27.2,24.1,29.92,SE,139,3.0,12.0,88,0.00,,OVC065,0.00,VWS V14.01,2013-02-21 13:24:00,
2013-02-21 07:29:00,27.2,24.1,29.90,East,91,6.0,13.0,88,0.00,,OVC065,0.00,VWS V14.01,2013-02-21 13:29:00,
2013-02-21 07:30:00,27.4,24.3,29.88,East,96,3.0,20.0,88,0.00,,CLR,0.00,VWS V14.01,2013-02-21 13:30:00,
2013-02-21 07:34:00,27.1,24.0,29.91,ESE,118,4.0,10.0,88,0.00,,OVC065,0.00,VWS V14.01,2013-02-21 13:34:00,
2013-02-21 07:40:00,27.0,24.2,29.91,East,92,7.0,12.0,89,0.00,,OVC065,0.00,VWS V14.01,2013-02-21 13:40:00,
2013-02-21 07:45:00,27.0,24.2,29.91,ESE,121,4.0,12.0,89,0.00,,OVC065,0.00,VWS V14.01,2013-02-21 13:45:00,
2013-02-21 07:50:00,27.1,24.3,29.91,ESE,122,10.0,12.0,89,0.00,,OVC065,0.00,VWS V14.01,2013-02-21 13:50:00,
2013-02-21 07:55:00,27.2,24.4,29.89,ENE,67,4.0,12.0,89,0.00,,,0.00,VWS V14.01,2013-02-21 13:55:00,
2013-02-21 08:00:00,27.2,24.7,29.89,ESE,111,7.0,7.0,90,0.00,,,0.00,VWS V14.01,2013-02-21 14:00:00,
2013-02-21 08:05:00,27.3,24.5,29.90,ESE,110,2.0,15.0,89,0.00,,,0.00,VWS V14.01,2013-02-21 14:05:00,
2013-02-21 08:10:00,27.3,24.2,29.90,SE,130,13.0,20.0,88,0.00,,,0.00,VWS V14.01,2013-02-21 14:10:00,
2013-02-21 08:15:00,27.4,24.3,29.89,East,98,9.0,20.0,88,0.00,,,0.00,VWS V14.01,2013-02-21 14:15:00,
2013-02-21 08:20:00,27.4,24.6,29.90,ESE,117,7.0,20.0,89,0.00,,,0.00,VWS V14.01,2013-02-21 14:20:00,
2013-02-21 08:25:00,27.4,24.3,29.89,ESE,111,8.0,20.0,88,0.00,,,0.00,VWS V14.01,2013-02-21 14:25:00,
2013-02-21 08:30:00,27.4,24.3,29.88,East,87,15.0,15.0,88,0.00,,,0.00,VWS V14.01,2013-02-21 14:30:00,
2013-02-21 08:36:00,27.4,24.3,29.87,East,80,7.0,15.0,88,0.00,,,0.00,VWS V14.01,2013-02-21 14:36:00,
2013-02-21 08:41:00,27.4,24.3,29.88,ESE,103,4.0,15.0,88,0.00,,,0.00,VWS V14.01,2013-02-21 14:41:00,
2013-02-21 08:46:00,27.4,24.3,29.87,SSE,151,6.0,15.0,88,0.00,,,0.00,VWS V14.01,2013-02-21 14:46:00,
2013-02-21 08:51:00,27.4,24.6,29.86,ESE,118,9.0,15.0,89,0.00,,,0.00,VWS V14.01,2013-02-21 14:51:00,
2013-02-21 08:56:00,27.5,24.4,29.85,East,80,10.0,23.0,88,0.00,,,0.00,VWS V14.01,2013-02-21 14:56:00,
2013-02-21 09:00:00,27.8,25.0,29.83,SE,139,3.0,18.0,89,0.00,,CLR,0.00,VWS V14.01,2013-02-21 15:00:00,
2013-02-21 09:01:00,27.5,24.4,29.85,SE,138,11.0,17.0,88,0.00,,,0.00,VWS V14.01,2013-02-21 15:01:00,
2013-02-21 09:06:00,27.5,24.4,29.83,East,91,5.0,17.0,88,0.00,,,0.00,VWS V14.01,2013-02-21 15:06:00,
2013-02-21 09:11:00,27.6,24.8,29.85,ESE,119,10.0,17.0,89,0.00,,,0.00,VWS V14.01,2013-02-21 15:11:00,
2013-02-21 09:16:00,27.6,24.8,29.85,SE,135,5.0,17.0,89,0.00,,,0.00,VWS V14.01,2013-02-21 15:16:00,
2013-02-21 09:21:00,27.5,24.4,29.84,ENE,65,8.0,18.0,88,0.00,,,0.00,VWS V14.01,2013-02-21 15:21:00,
2013-02-21 09:27:00,27.5,24.7,29.83,East,98,9.0,18.0,89,0.00,,,0.00,VWS V14.01,2013-02-21 15:27:00,
2013-02-21 09:30:00,28.3,26.0,29.81,ESE,120,3.0,14.0,91,0.00,,CLR,0.00,VWS V14.01,2013-02-21 15:30:00,
2013-02-21 09:32:00,27.6,24.8,29.81,NE,49,7.0,13.0,89,0.00,,,0.00,VWS V14.01,2013-02-21 15:32:00,
2013-02-21 09:37:00,27.6,24.8,29.82,East,98,6.0,13.0,89,0.00,,,0.00,VWS V14.01,2013-02-21 15:37:00,
2013-02-21 09:42:00,27.6,24.5,29.84,ESE,105,5.0,13.0,88,0.00,,OVC037,0.00,VWS V14.01,2013-02-21 15:42:00,
2013-02-21 09:47:00,27.6,24.5,29.82,ESE,114,5.0,13.0,88,0.00,,OVC037,0.00,VWS V14.01,2013-02-21 15:47:00,
2013-02-21 09:52:00,27.7,24.9,29.83,SE,124,6.0,13.0,89,0.00,,OVC037,0.00,VWS V14.01,2013-02-21 15:52:00,
2013-02-21 09:57:00,27.8,25.0,29.83,ESE,119,7.0,18.0,89,0.00,,OVC037,0.00,VWS V14.01,2013-02-21 15:57:00,
2013-02-21 10:00:00,28.3,26.0,29.75,SE,135,2.0,15.0,91,0.00,,CLR,0.00,VWS V14.01,2013-02-21 16:00:00,
2013-02-21 10:02:00,27.9,25.1,29.82,ESE,113,11.0,12.0,89,0.00,,OVC037,0.00,VWS V14.01,2013-02-21 16:02:00,
2013-02-21 10:07:00,28.1,25.5,29.80,ESE,117,9.0,12.0,90,0.00,,OVC037,0.00,VWS V14.01,2013-02-21 16:07:00,
2013-02-21 10:13:00,28.1,25.5,29.79,ESE,118,7.0,12.0,90,0.00,,OVC037,0.00,VWS V14.01,2013-02-21 16:13:00,
2013-02-21 10:18:00,28.1,25.5,29.79,ESE,108,2.0,12.0,90,0.00,,OVC037,0.00,VWS V14.01,2013-02-21 16:18:00,
2013-02-21 10:23:00,28.2,25.9,29.81,ESE,121,7.0,12.0,91,0.00,,,0.00,VWS V14.01,2013-02-21 16:23:00,
2013-02-21 10:28:00,28.3,26.0,29.81,ESE,102,5.0,14.0,91,0.00,,,0.00,VWS V14.01,2013-02-21 16:28:00,
2013-02-21 10:30:00,29.2,27.4,29.81,SE,129,0.0,13.0,93,0.00,,CLR,0.00,VWS V14.01,2013-02-21 16:30:00,
2013-02-21 10:33:00,28.3,26.0,29.80,ESE,107,5.0,9.0,91,0.00,,,0.00,VWS V14.01,2013-02-21 16:33:00,
2013-02-21 10:38:00,28.3,26.0,29.79,SE,128,7.0,13.0,91,0.00,,,0.00,VWS V14.01,2013-02-21 16:38:00,
2013-02-21 10:43:00,28.4,26.1,29.77,ESE,116,4.0,14.0,91,0.00,,OVC035,0.00,VWS V14.01,2013-02-21 16:43:00,
2013-02-21 10:48:00,28.4,26.4,29.76,East,80,6.0,14.0,92,0.00,,OVC035,0.00,VWS V14.01,2013-02-21 16:48:00,
2013-02-21 10:53:00,28.4,26.1,29.73,SE,125,6.0,15.0,91,0.00,,FZRA,0.00,VWS V14.01,2013-02-21 16:53:00,
2013-02-21 10:58:00,28.3,26.0,29.75,East,82,6.0,15.0,91,0.00,,FZRA,0.00,VWS V14.01,2013-02-21 16:58:00,
2013-02-21 11:00:00,30.0,28.2,29.80,ENE,69,0.0,0.0,93,0.00,,CLR,0.00,VWS V14.01,2013-02-21 17:00:00,
2013-02-21 11:03:00,28.4,26.4,29.77,ESE,114,12.0,12.0,92,0.00,,OVC035,0.00,VWS V14.01,2013-02-21 17:03:00,
2013-02-21 11:09:00,28.6,26.3,29.76,East,85,1.0,13.0,91,0.00,,OVC035,0.00,VWS V14.01,2013-02-21 17:09:00,
2013-02-21 11:14:00,28.7,26.7,29.75,East,89,8.0,13.0,92,0.00,,FZRA,0.00,VWS V14.01,2013-02-21 17:14:00,
2013-02-21 11:19:00,28.8,26.8,29.76,SE,129,0.0,13.0,92,0.00,,FZRA,0.00,VWS V14.01,2013-02-21 17:19:00,
2013-02-21 11:24:00,28.9,26.9,29.79,SSE,147,0.0,13.0,92,0.00,,FZRA,0.00,VWS V14.01,2013-02-21 17:24:00,
2013-02-21 11:29:00,29.1,27.3,29.81,SE,136,0.0,13.0,93,0.00,,FZRA,0.00,VWS V14.01,2013-02-21 17:29:00,
2013-02-21 11:30:00,30.4,28.9,29.81,ENE,69,0.0,0.0,94,0.00,,CLR,0.00,VWS V14.01,2013-02-21 17:30:00,
2013-02-21 11:34:00,29.4,27.6,29.78,ESE,120,0.0,0.0,93,0.00,,FZRA,0.00,VWS V14.01,2013-02-21 17:34:00,
2013-02-21 11:39:00,29.5,27.7,29.83,South,183,0.0,0.0,93,0.00,,FZRA,0.00,VWS V14.01,2013-02-21 17:39:00,
2013-02-21 11:44:00,29.6,27.8,29.86,ENE,72,0.0,0.0,93,0.00,,FZRA,0.00,VWS V14.01,2013-02-21 17:44:00,
2013-02-21 11:49:00,29.7,27.9,29.80,ENE,69,0.0,0.0,93,0.00,,FZRA,0.00,VWS V14.01,2013-02-21 17:49:00,
2013-02-21 11:55:00,29.9,28.1,29.83,ENE,69,0.0,0.0,93,0.00,,,0.00,VWS V14.01,2013-02-21 17:55:00,
2013-02-21 12:00:00,30.0,28.2,29.80,ENE,69,0.0,0.0,93,0.00,,,0.00,VWS V14.01,2013-02-21 18:00:00,
2013-02-21 12:05:00,30.2,28.7,29.84,ENE,69,0.0,0.0,94,0.00,,,0.00,VWS V14.01,2013-02-21 18:05:00,
2013-02-21 12:10:00,30.3,28.8,29.85,ENE,69,0.0,0.0,94,0.00,,,0.00,VWS V14.01,2013-02-21 18:10:00,
2013-02-21 12:15:00,30.3,28.8,29.84,ENE,69,0.0,0.0,94,0.00,,,0.00,VWS V14.01,2013-02-21 18:15:00,
2013-02-21 12:20:00,30.3,28.8,29.84,ENE,69,0.0,0.0,94,0.00,,,0.00,VWS V14.01,2013-02-21 18:20:00,
2013-02-21 12:25:00,30.4,28.9,29.82,ENE,69,0.0,0.0,94,0.00,,,0.00,VWS V14.01,2013-02-21 18:25:00,
2013-02-21 12:30:00,30.4,28.9,29.81,ENE,69,0.0,0.0,94,0.00,,,0.00,VWS V14.01,2013-02-21 18:30:00,
2013-02-21 12:35:00,30.4,28.9,29.81,ENE,69,0.0,0.0,94,0.00,,,0.00,VWS V14.01,2013-02-21 18:35:00,
2013-02-21 12:40:00,30.5,29.0,29.81,ENE,69,0.0,0.0,94,0.00,,FZRA,0.00,VWS V14.01,2013-02-21 18:40:00,
2013-02-21 12:46:00,30.6,29.1,29.82,ENE,69,0.0,0.0,94,0.00,,FZRA,0.00,VWS V14.01,2013-02-21 18:46:00,
2013-02-21 12:51:00,30.6,29.1,29.81,ENE,69,0.0,0.0,94,0.00,,FZRA,0.00,VWS V14.01,2013-02-21 18:51:00,
2013-02-21 12:56:00,30.6,29.1,29.77,ENE,69,0.0,0.0,94,0.00,,FZRA,0.00,VWS V14.01,2013-02-21 18:56:00,
2013-02-21 13:00:00,31.1,29.6,29.73,ENE,69,0.0,0.0,94,0.00,,CLR,0.00,VWS V14.01,2013-02-21 19:00:00,
2013-02-21 13:01:00,30.7,29.2,29.77,ENE,69,0.0,0.0,94,0.00,,FZRA,0.00,VWS V14.01,2013-02-21 19:01:00,
2013-02-21 13:06:00,30.7,29.2,29.76,ENE,69,0.0,0.0,94,0.00,,FZRA,0.00,VWS V14.01,2013-02-21 19:06:00,
2013-02-21 13:11:00,30.7,29.2,29.76,ENE,69,0.0,0.0,94,0.00,,FZRA,0.00,VWS V14.01,2013-02-21 19:11:00,
2013-02-21 13:16:00,30.7,29.2,29.76,ENE,69,0.0,0.0,94,0.00,,FZRA,0.00,VWS V14.01,2013-02-21 19:16:00,
2013-02-21 13:21:00,30.7,29.2,29.75,ENE,69,0.0,0.0,94,0.00,,,0.00,VWS V14.01,2013-02-21 19:21:00,
2013-02-21 13:26:00,30.8,29.3,29.75,ENE,69,0.0,0.0,94,0.00,,,0.00,VWS V14.01,2013-02-21 19:26:00,
2013-02-21 13:30:00,31.1,29.6,29.71,ENE,69,0.0,0.0,94,0.00,,CLR,0.00,VWS V14.01,2013-02-21 19:30:00,
2013-02-21 13:32:00,30.8,29.3,29.75,ENE,69,0.0,0.0,94,0.00,,,0.00,VWS V14.01,2013-02-21 19:32:00,
2013-02-21 13:37:00,30.7,29.2,29.76,ENE,69,0.0,0.0,94,0.00,,,0.00,VWS V14.01,2013-02-21 19:37:00,
2013-02-21 13:42:00,30.8,29.3,29.75,ENE,69,0.0,0.0,94,0.00,,,0.00,VWS V14.01,2013-02-21 19:42:00,
2013-02-21 13:47:00,31.0,29.7,29.75,ENE,69,0.0,0.0,95,0.00,,,0.00,VWS V14.01,2013-02-21 19:47:00,
2013-02-21 13:52:00,31.0,29.7,29.73,ENE,69,0.0,0.0,95,0.00,,,0.00,VWS V14.01,2013-02-21 19:52:00,
2013-02-21 13:57:00,31.1,29.8,29.73,ENE,69,0.0,0.0,95,0.00,,,0.00,VWS V14.01,2013-02-21 19:57:00,
2013-02-21 14:00:00,31.2,29.7,29.70,ENE,69,0.0,0.0,94,0.00,,CLR,0.00,VWS V14.01,2013-02-21 20:00:00,
2013-02-21 14:02:00,31.1,29.6,29.73,ENE,69,0.0,0.0,94,0.00,,,0.00,VWS V14.01,2013-02-21 20:02:00,
2013-02-21 14:07:00,31.1,29.6,29.73,ENE,69,0.0,0.0,94,0.00,,,0.00,VWS V14.01,2013-02-21 20:07:00,
2013-02-21 14:12:00,31.2,29.7,29.72,ENE,69,0.0,0.0,94,0.00,,,0.00,VWS V14.01,2013-02-21 20:12:00,
2013-02-21 14:18:00,31.2,29.7,29.72,ENE,69,0.0,0.0,94,0.00,,,0.00,VWS V14.01,2013-02-21 20:18:00,
2013-02-21 14:23:00,31.2,29.9,29.72,ENE,69,0.0,0.0,95,0.00,,,0.00,VWS V14.01,2013-02-21 20:23:00,
2013-02-21 14:28:00,31.1,29.6,29.71,ENE,69,0.0,0.0,94,0.00,,,0.00,VWS V14.01,2013-02-21 20:28:00,
2013-02-21 14:30:00,31.1,29.6,29.69,ENE,69,0.0,0.0,94,0.01,,CLR,0.01,VWS V14.01,2013-02-21 20:30:00,
2013-02-21 14:33:00,31.2,29.7,29.70,ENE,69,0.0,0.0,94,0.00,,,0.00,VWS V14.01,2013-02-21 20:33:00,
2013-02-21 14:38:00,31.2,29.7,29.71,ENE,69,0.0,0.0,94,0.00,,,0.00,VWS V14.01,2013-02-21 20:38:00,
2013-02-21 14:43:00,31.2,29.7,29.71,ENE,69,0.0,0.0,94,0.00,,,0.00,VWS V14.01,2013-02-21 20:43:00,
2013-02-21 14:48:00,31.2,29.7,29.70,ENE,69,0.0,0.0,94,0.00,,,0.00,VWS V14.01,2013-02-21 20:48:00,
2013-02-21 14:53:00,31.2,29.9,29.70,ENE,69,0.0,0.0,95,0.00,,,0.00,VWS V14.01,2013-02-21 20:53:00,
2013-02-21 14:59:00,31.2,29.7,29.70,ENE,69,0.0,0.0,94,0.00,,,0.00,VWS V14.01,2013-02-21 20:59:00,
2013-02-21 15:00:00,31.1,29.8,29.69,ENE,69,0.0,0.0,95,0.04,,CLR,0.04,VWS V14.01,2013-02-21 21:00:00,
2013-02-21 15:04:00,31.2,29.7,29.70,ENE,69,0.0,0.0,94,0.00,,,0.00,VWS V14.01,2013-02-21 21:04:00,
2013-02-21 15:09:00,31.1,29.6,29.70,ENE,69,0.0,0.0,94,0.01,,,0.01,VWS V14.01,2013-02-21 21:09:00,
2013-02-21 15:14:00,31.1,29.6,29.69,ENE,69,0.0,0.0,94,0.01,,,0.01,VWS V14.01,2013-02-21 21:14:00,
2013-02-21 15:19:00,31.1,29.6,29.69,ENE,69,0.0,0.0,94,0.01,,,0.01,VWS V14.01,2013-02-21 21:19:00,
2013-02-21 15:24:00,31.1,29.6,29.69,ENE,69,0.0,0.0,94,0.01,,,0.01,VWS V14.01,2013-02-21 21:24:00,
2013-02-21 15:29:00,31.1,29.6,29.69,ENE,69,0.0,0.0,94,0.01,,,0.01,VWS V14.01,2013-02-21 21:29:00,
2013-02-21 15:30:00,31.1,29.8,29.69,ENE,69,0.0,0.0,95,0.06,,CLR,0.06,VWS V14.01,2013-02-21 21:30:00,
2013-02-21 15:34:00,31.1,29.6,29.69,ENE,69,0.0,0.0,94,0.02,,,0.02,VWS V14.01,2013-02-21 21:34:00,
2013-02-21 15:39:00,31.2,29.7,29.69,ENE,69,0.0,0.0,94,0.02,,,0.02,VWS V14.01,2013-02-21 21:39:00,
2013-02-21 15:44:00,31.1,29.6,29.69,ENE,69,0.0,0.0,94,0.02,,,0.02,VWS V14.01,2013-02-21 21:44:00,
2013-02-21 15:50:00,31.1,29.8,29.69,ENE,69,0.0,0.0,95,0.03,,,0.03,VWS V14.01,2013-02-21 21:50:00,
2013-02-21 15:55:00,31.1,29.8,29.69,ENE,69,0.0,0.0,95,0.04,,,0.04,VWS V14.01,2013-02-21 21:55:00,
2013-02-21 16:00:00,31.1,29.8,29.69,ENE,69,0.0,0.0,95,0.04,,,0.04,VWS V14.01,2013-02-21 22:00:00,
2013-02-21 16:05:00,31.1,29.8,29.69,ENE,69,0.0,0.0,95,0.04,,,0.04,VWS V14.01,2013-02-21 22:05:00,
2013-02-21 16:10:00,31.1,29.8,29.69,ENE,69,0.0,0.0,95,0.05,,,0.05,VWS V14.01,2013-02-21 22:10:00,
2013-02-21 16:15:00,31.1,29.8,29.70,ENE,69,0.0,0.0,95,0.05,,,0.05,VWS V14.01,2013-02-21 22:15:00,
2013-02-21 16:20:00,31.1,29.8,29.70,ENE,69,0.0,0.0,95,0.05,,,0.05,VWS V14.01,2013-02-21 22:20:00,
2013-02-21 16:25:00,31.1,29.8,29.70,ENE,69,0.0,0.0,95,0.06,,,0.06,VWS V14.01,2013-02-21 22:25:00,
2013-02-21 16:30:00,31.2,29.9,29.69,ENE,69,0.0,0.0,95,0.05,,,0.06,VWS V14.01,2013-02-21 22:30:00,
2013-02-21 16:36:00,31.2,29.9,29.70,ENE,69,0.0,0.0,95,0.05,,,0.06,VWS V14.01,2013-02-21 22:36:00,
2013-02-21 16:41:00,31.2,29.9,29.70,ENE,69,0.0,0.0,95,0.05,,,0.06,VWS V14.01,2013-02-21 22:41:00,
2013-02-21 16:46:00,31.2,29.9,29.70,ENE,69,0.0,0.0,95,0.06,,,0.07,VWS V14.01,2013-02-21 22:46:00,
2013-02-21 16:51:00,31.2,29.9,29.70,ENE,69,0.0,0.0,95,0.06,,,0.07,VWS V14.01,2013-02-21 22:51:00,
2013-02-21 16:56:00,31.2,29.9,29.70,ENE,69,0.0,0.0,95,0.06,,,0.07,VWS V14.01,2013-02-21 22:56:00,
2013-02-21 17:00:00,31.3,30.0,29.69,ENE,69,0.0,0.0,95,0.02,,CLR,0.08,VWS V14.01,2013-02-21 23:00:00,
2013-02-21 17:01:00,31.2,29.9,29.70,ENE,69,0.0,0.0,95,0.03,,,0.07,VWS V14.01,2013-02-21 23:01:00,
2013-02-21 17:06:00,31.2,29.9,29.70,ENE,69,0.0,0.0,95,0.03,,,0.07,VWS V14.01,2013-02-21 23:06:00,
2013-02-21 17:11:00,31.2,29.9,29.70,ENE,69,0.0,0.0,95,0.04,,,0.08,VWS V14.01,2013-02-21 23:11:00,
2013-02-21 17:16:00,31.2,29.9,29.70,ENE,69,0.0,0.0,95,0.04,,,0.08,VWS V14.01,2013-02-21 23:16:00,
2013-02-21 17:21:00,31.2,29.9,29.69,ENE,69,0.0,0.0,95,0.04,,,0.08,VWS V14.01,2013-02-21 23:21:00,
2013-02-21 17:27:00,31.2,29.9,29.69,ENE,69,0.0,0.0,95,0.04,,,0.08,VWS V14.01,2013-02-21 23:27:00,
2013-02-21 17:30:00,31.4,30.1,29.72,ENE,69,0.0,0.0,95,0.01,,CLR,0.08,VWS V14.01,2013-02-21 23:30:00,
2013-02-21 17:32:00,31.2,29.9,29.69,ENE,69,0.0,0.0,95,0.02,,,0.08,VWS V14.01,2013-02-21 23:32:00,
2013-02-21 17:37:00,31.2,29.9,29.70,ENE,69,0.0,0.0,95,0.02,,,0.08,VWS V14.01,2013-02-21 23:37:00,
2013-02-21 17:42:00,31.3,30.0,29.70,ENE,69,0.0,0.0,95,0.02,,,0.08,VWS V14.01,2013-02-21 23:42:00,
2013-02-21 17:47:00,31.3,30.0,29.70,ENE,69,0.0,0.0,95,0.02,,,0.08,VWS V14.01,2013-02-21 23:47:00,
2013-02-21 17:52:00,31.2,29.9,29.70,ENE,69,0.0,0.0,95,0.02,,OVC006,0.08,VWS V14.01,2013-02-21 23:52:00,
2013-02-21 17:57:00,31.3,30.0,29.69,ENE,69,0.0,0.0,95,0.02,,OVC006,0.08,VWS V14.01,2013-02-21 23:57:00,
2013-02-21 18:00:00,31.4,30.1,29.75,ENE,69,0.0,0.0,95,0.00,,CLR,0.08,VWS V14.01,2013-02-22 00:00:00,
2013-02-21 18:02:00,31.3,30.0,29.70,ENE,69,0.0,0.0,95,0.01,,OVC006,0.08,VWS V14.01,2013-02-22 00:02:00,
2013-02-21 18:07:00,31.3,30.0,29.71,ENE,69,0.0,0.0,95,0.01,,OVC006,0.08,VWS V14.01,2013-02-22 00:07:00,
2013-02-21 18:12:00,31.3,30.0,29.71,ENE,69,0.0,0.0,95,0.01,,,0.08,VWS V14.01,2013-02-22 00:12:00,
2013-02-21 18:18:00,31.3,30.0,29.72,ENE,69,0.0,0.0,95,0.01,,,0.08,VWS V14.01,2013-02-22 00:18:00,
2013-02-21 18:23:00,31.3,30.0,29.72,ENE,69,0.0,0.0,95,0.01,,,0.08,VWS V14.01,2013-02-22 00:23:00,
2013-02-21 18:28:00,31.3,30.0,29.71,ENE,69,0.0,0.0,95,0.01,,,0.08,VWS V14.01,2013-02-22 00:28:00,
2013-02-21 18:30:00,31.4,30.4,29.76,ENE,69,0.0,0.0,96,0.00,,CLR,0.08,VWS V14.01,2013-02-22 00:30:00,
2013-02-21 18:33:00,31.4,30.1,29.72,ENE,69,0.0,0.0,95,0.00,,,0.08,VWS V14.01,2013-02-22 00:33:00,
2013-02-21 18:38:00,31.4,30.1,29.74,ENE,69,0.0,0.0,95,0.00,,,0.08,VWS V14.01,2013-02-22 00:38:00,
2013-02-21 18:43:00,31.3,30.0,29.74,ENE,69,0.0,0.0,95,0.00,,,0.08,VWS V14.01,2013-02-22 00:43:00,
2013-02-21 18:48:00,31.4,30.1,29.74,ENE,69,0.0,0.0,95,0.00,,,0.08,VWS V14.01,2013-02-22 00:48:00,
2013-02-21 18:53:00,31.4,30.1,29.74,ENE,69,0.0,0.0,95,0.00,,,0.08,VWS V14.01,2013-02-22 00:53:00,
2013-02-21 18:59:00,31.4,30.1,29.75,ENE,69,0.0,0.0,95,0.00,,,0.08,VWS V14.01,2013-02-22 00:59:00,
2013-02-21 19:00:00,31.4,30.4,29.75,ENE,69,0.0,0.0,96,0.00,,CLR,0.08,VWS V14.01,2013-02-22 01:00:00,
2013-02-21 19:04:00,31.4,30.1,29.75,ENE,69,0.0,0.0,95,0.00,,,0.08,VWS V14.01,2013-02-22 01:04:00,
2013-02-21 19:09:00,31.4,30.1,29.75,ENE,69,0.0,0.0,95,0.00,,,0.08,VWS V14.01,2013-02-22 01:09:00,
2013-02-21 19:14:00,31.5,30.5,29.75,ENE,69,0.0,0.0,96,0.00,,,0.08,VWS V14.01,2013-02-22 01:14:00,
2013-02-21 19:19:00,31.4,30.4,29.75,ENE,69,0.0,0.0,96,0.00,,,0.08,VWS V14.01,2013-02-22 01:19:00,
2013-02-21 19:24:00,31.5,30.5,29.76,ENE,69,0.0,0.0,96,0.00,,,0.08,VWS V14.01,2013-02-22 01:24:00,
2013-02-21 19:29:00,31.4,30.4,29.76,ENE,69,0.0,0.0,96,0.00,,,0.08,VWS V14.01,2013-02-22 01:29:00,
2013-02-21 19:30:00,31.3,30.3,29.75,ENE,69,0.0,0.0,96,0.00,,CLR,0.08,VWS V14.01,2013-02-22 01:30:00,
2013-02-21 19:34:00,31.5,30.5,29.75,ENE,69,0.0,0.0,96,0.00,,,0.08,VWS V14.01,2013-02-22 01:34:00,
2013-02-21 19:39:00,31.4,30.4,29.75,ENE,69,0.0,0.0,96,0.00,,,0.08,VWS V14.01,2013-02-22 01:39:00,
2013-02-21 19:44:00,31.4,30.4,29.74,ENE,69,0.0,0.0,96,0.00,,,0.08,VWS V14.01,2013-02-22 01:44:00,
2013-02-21 19:50:00,31.4,30.4,29.75,ENE,69,0.0,0.0,96,0.00,,,0.08,VWS V14.01,2013-02-22 01:50:00,
2013-02-21 19:55:00,31.4,30.4,29.75,ENE,69,0.0,0.0,96,0.00,,,0.08,VWS V14.01,2013-02-22 01:55:00,
2013-02-21 20:00:00,31.4,30.4,29.75,ENE,69,0.0,0.0,96,0.00,,,0.08,VWS V14.01,2013-02-22 02:00:00,
2013-02-21 20:05:00,31.4,30.4,29.75,ENE,69,0.0,0.0,96,0.00,,,0.08,VWS V14.01,2013-02-22 02:05:00,
2013-02-21 20:10:00,31.4,30.4,29.74,ENE,69,0.0,0.0,96,0.00,,,0.08,VWS V14.01,2013-02-22 02:10:00,
2013-02-21 20:15:00,31.3,30.3,29.74,ENE,69,0.0,0.0,96,0.00,,,0.08,VWS V14.01,2013-02-22 02:15:00,
2013-02-21 20:20:00,31.3,30.3,29.75,ENE,69,0.0,0.0,96,0.00,,,0.08,VWS V14.01,2013-02-22 02:20:00,
2013-02-21 20:25:00,31.3,30.3,29.75,ENE,69,0.0,0.0,96,0.00,,,0.08,VWS V14.01,2013-02-22 02:25:00,
2013-02-21 20:30:00,31.3,30.3,29.75,ENE,69,0.0,0.0,96,0.00,,,0.08,VWS V14.01,2013-02-22 02:30:00,
2013-02-21 20:36:00,31.4,30.4,29.75,ENE,69,0.0,0.0,96,0.00,,,0.08,VWS V14.01,2013-02-22 02:36:00,
2013-02-21 20:41:00,31.4,30.4,29.75,ENE,69,0.0,0.0,96,0.00,,,0.08,VWS V14.01,2013-02-22 02:41:00,
2013-02-21 20:46:00,31.4,30.4,29.75,ENE,69,0.0,0.0,96,0.00,,,0.08,VWS V14.01,2013-02-22 02:46:00,
2013-02-21 20:51:00,31.4,30.4,29.75,ENE,69,0.0,0.0,96,0.00,,,0.08,VWS V14.01,2013-02-22 02:51:00,
2013-02-21 20:56:00,31.4,30.4,29.75,ENE,69,0.0,0.0,96,0.00,,,0.08,VWS V14.01,2013-02-22 02:56:00,
2013-02-21 21:00:00,31.1,30.1,29.75,ENE,69,0.0,0.0,96,0.00,,CLR,0.08,VWS V14.01,2013-02-22 03:00:00,
2013-02-21 21:01:00,31.4,30.4,29.75,ENE,69,0.0,0.0,96,0.00,,,0.08,VWS V14.01,2013-02-22 03:01:00,
2013-02-21 21:06:00,31.3,30.3,29.75,ENE,69,0.0,0.0,96,0.00,,,0.08,VWS V14.01,2013-02-22 03:06:00,
2013-02-21 21:11:00,31.3,30.3,29.76,ENE,69,0.0,0.0,96,0.00,,,0.08,VWS V14.01,2013-02-22 03:11:00,
2013-02-21 21:16:00,31.3,30.3,29.75,ENE,69,0.0,0.0,96,0.00,,,0.08,VWS V14.01,2013-02-22 03:16:00,
2013-02-21 21:21:00,31.3,30.3,29.74,ENE,69,0.0,0.0,96,0.00,,,0.08,VWS V14.01,2013-02-22 03:21:00,
2013-02-21 21:27:00,31.3,30.3,29.74,ENE,69,0.0,0.0,96,0.00,,,0.08,VWS V14.01,2013-02-22 03:27:00,
2013-02-21 21:30:00,31.1,30.1,29.77,ENE,69,0.0,0.0,96,0.00,,CLR,0.08,VWS V14.01,2013-02-22 03:30:00,
2013-02-21 21:32:00,31.3,30.3,29.75,ENE,69,0.0,0.0,96,0.00,,,0.08,VWS V14.01,2013-02-22 03:32:00,
2013-02-21 21:37:00,31.2,30.2,29.75,ENE,69,0.0,0.0,96,0.00,,,0.08,VWS V14.01,2013-02-22 03:37:00,
2013-02-21 21:42:00,31.2,30.2,29.75,ENE,69,0.0,0.0,96,0.00,,OVC004,0.08,VWS V14.01,2013-02-22 03:42:00,
2013-02-21 21:47:00,31.1,30.1,29.75,ENE,69,0.0,0.0,96,0.00,,OVC004,0.08,VWS V14.01,2013-02-22 03:47:00,
2013-02-21 21:52:00,31.1,30.1,29.75,ENE,69,0.0,0.0,96,0.00,,OVC004,0.08,VWS V14.01,2013-02-22 03:52:00,
2013-02-21 21:57:00,31.1,30.1,29.75,ENE,69,0.0,0.0,96,0.00,,OVC004,0.08,VWS V14.01,2013-02-22 03:57:00,
2013-02-21 22:00:00,31.2,30.2,29.76,ENE,69,0.0,0.0,96,0.00,,CLR,0.08,VWS V14.01,2013-02-22 04:00:00,
2013-02-21 22:02:00,31.1,30.1,29.75,ENE,69,0.0,0.0,96,0.00,,OVC004,0.08,VWS V14.01,2013-02-22 04:02:00,
2013-02-21 22:07:00,31.1,30.1,29.76,ENE,69,0.0,0.0,96,0.00,,OVC004,0.08,VWS V14.01,2013-02-22 04:07:00,
2013-02-21 22:12:00,31.1,30.1,29.76,ENE,69,0.0,0.0,96,0.00,,OVC004,0.08,VWS V14.01,2013-02-22 04:12:00,
2013-02-21 22:18:00,31.1,30.1,29.76,ENE,69,0.0,0.0,96,0.00,,OVC004,0.08,VWS V14.01,2013-02-22 04:18:00,
2013-02-21 22:23:00,31.1,30.1,29.77,ENE,69,0.0,0.0,96,0.00,,OVC004,0.08,VWS V14.01,2013-02-22 04:23:00,
2013-02-21 22:28:00,31.1,30.1,29.77,ENE,69,0.0,0.0,96,0.00,,OVC004,0.08,VWS V14.01,2013-02-22 04:28:00,
2013-02-21 22:30:00,31.2,30.2,29.75,ENE,69,0.0,0.0,96,0.00,,CLR,0.08,VWS V14.01,2013-02-22 04:30:00,
2013-02-21 22:33:00,31.1,30.1,29.77,ENE,69,0.0,0.0,96,0.00,,OVC004,0.08,VWS V14.01,2013-02-22 04:33:00,
2013-02-21 22:38:00,31.0,30.0,29.77,ENE,69,0.0,0.0,96,0.00,,OVC004,0.08,VWS V14.01,2013-02-22 04:38:00,
2013-02-21 22:43:00,31.1,30.1,29.76,ENE,69,0.0,0.0,96,0.00,,,0.08,VWS V14.01,2013-02-22 04:43:00,
2013-02-21 22:48:00,31.1,30.1,29.76,ENE,69,0.0,0.0,96,0.00,,,0.08,VWS V14.01,2013-02-22 04:48:00,
2013-02-21 22:53:00,31.1,30.1,29.76,ENE,69,0.0,0.0,96,0.00,,,0.08,VWS V14.01,2013-02-22 04:53:00,
2013-02-21 22:58:00,31.1,30.1,29.76,ENE,69,0.0,0.0,96,0.00,,,0.08,VWS V14.01,2013-02-22 04:58:00,
2013-02-21 23:00:00,31.1,30.1,29.76,ENE,69,0.0,0.0,96,0.00,,,0.08,VWS V14.01,2013-02-22 05:00:00,
2013-02-21 23:01:00,31.2,30.2,29.76,ENE,69,0.0,0.0,96,0.00,,,0.08,VWS V14.01,2013-02-22 05:01:00,
2013-02-21 23:06:00,31.2,30.2,29.76,ENE,69,0.0,0.0,96,0.00,,,0.08,VWS V14.01,2013-02-22 05:06:00,
2013-02-21 23:11:00,31.2,30.2,29.76,ENE,69,0.0,0.0,96,0.00,,,0.08,VWS V14.01,2013-02-22 05:11:00,
2013-02-21 23:16:00,31.2,30.2,29.76,ENE,69,0.0,0.0,96,0.00,,,0.08,VWS V14.01,2013-02-22 05:16:00,
2013-02-21 23:21:00,31.2,30.2,29.76,ENE,69,0.0,0.0,96,0.00,,,0.08,VWS V14.01,2013-02-22 05:21:00,
2013-02-21 23:27:00,31.2,30.2,29.75,ENE,69,0.0,0.0,96,0.00,,,0.08,VWS V14.01,2013-02-22 05:27:00,
2013-02-21 23:30:00,31.3,30.3,29.75,ENE,69,0.0,0.0,96,0.00,,CLR,0.00,VWS V14.01,2013-02-22 05:30:00,
2013-02-21 23:32:00,31.2,30.2,29.75,ENE,69,0.0,0.0,96,0.00,,,0.08,VWS V14.01,2013-02-22 05:32:00,
2013-02-21 23:37:00,31.2,30.2,29.75,ENE,69,0.0,0.0,96,0.00,,,0.08,VWS V14.01,2013-02-22 05:37:00,
2013-02-21 23:42:00,31.2,30.2,29.75,ENE,69,0.0,0.0,96,0.00,,,0.08,VWS V14.01,2013-02-22 05:42:00,
2013-02-21 23:47:00,31.2,30.2,29.75,ENE,69,0.0,0.0,96,0.00,,,0.08,VWS V14.01,2013-02-22 05:47:00,
2013-02-21 23:52:00,31.2,30.2,29.75,ENE,69,0.0,0.0,96,0.00,,,0.08,VWS V14.01,2013-02-22 05:52:00,
2013-02-21 23:57:00,31.2,30.2,29.75,ENE,69,0.0,0.0,96,0.00,,,0.08,VWS V14.01,2013-02-22 05:57:00,